createdAt,value
2018-07-02T00:00:38.010Z,83.30
2018-07-02T00:03:06.331Z,82.53
2018-07-02T00:05:39.959Z,84.33
2018-07-02T00:08:08.281Z,85.77
2018-07-02T00:10:36.644Z,86.77
2018-07-02T00:13:04.944Z,82.67
2018-07-02T00:15:33.195Z,83.60
2018-07-02T00:18:01.524Z,84.67
2018-07-02T00:20:29.772Z,85.20
2018-07-02T00:22:58.049Z,86.80
2018-07-02T00:25:26.376Z,84.40
2018-07-02T00:27:54.710Z,84.90
2018-07-02T00:30:23.019Z,84.43
2018-07-02T00:32:51.384Z,85.90
2018-07-02T00:35:19.640Z,85.30
2018-07-02T00:37:47.899Z,83.83
2018-07-02T00:40:16.326Z,84.80
2018-07-02T00:42:44.649Z,86.73
2018-07-02T00:45:12.942Z,86.40
2018-07-02T00:47:41.188Z,86.60
2018-07-02T00:50:09.507Z,85.87
2018-07-02T00:52:37.791Z,86.57
2018-07-02T00:55:06.136Z,87.97
2018-07-02T00:57:34.387Z,91.33
2018-07-02T01:00:08.240Z,96.67
2018-07-02T01:02:36.499Z,90.03
2018-07-02T01:05:04.776Z,87.67
2018-07-02T01:07:33.025Z,87.30
2018-07-02T01:10:01.293Z,89.00
2018-07-02T01:12:29.553Z,87.70
2018-07-02T01:14:57.876Z,86.17
2018-07-02T01:17:26.211Z,88.40
2018-07-02T01:19:54.480Z,85.40
2018-07-02T01:22:22.772Z,86.80
2018-07-02T01:24:51.132Z,84.30
2018-07-02T01:27:19.454Z,84.00
2018-07-02T01:29:47.743Z,84.47
2018-07-02T01:32:16.101Z,85.20
2018-07-02T01:34:44.340Z,85.27
2018-07-02T01:37:12.651Z,83.93
2018-07-02T01:39:40.990Z,87.60
2018-07-02T01:42:09.343Z,82.17
2018-07-02T01:44:37.650Z,81.80
2018-07-02T01:47:06.013Z,82.53
2018-07-02T01:49:34.279Z,82.47
2018-07-02T01:52:02.627Z,82.77
2018-07-02T01:54:30.933Z,83.43
2018-07-02T01:56:59.185Z,81.70
2018-07-02T01:59:27.455Z,82.60
2018-07-02T02:01:55.771Z,81.40
2018-07-02T02:04:24.043Z,85.57
2018-07-02T02:06:52.415Z,83.23
2018-07-02T02:09:20.744Z,83.40
2018-07-02T02:11:49.034Z,83.00
2018-07-02T02:14:17.375Z,82.30
2018-07-02T02:16:45.645Z,82.87
2018-07-02T02:19:14.056Z,82.50
2018-07-02T02:21:42.344Z,83.27
2018-07-02T02:24:10.683Z,83.70
2018-07-02T02:26:39.011Z,83.60
2018-07-02T02:29:07.343Z,83.53
2018-07-02T02:31:35.589Z,82.37
2018-07-02T02:34:03.928Z,82.37
2018-07-02T02:36:32.229Z,83.57
2018-07-02T02:39:00.564Z,84.07
2018-07-02T02:41:28.868Z,82.50
2018-07-02T02:43:57.191Z,83.37
2018-07-02T02:46:25.489Z,84.10
2018-07-02T02:48:53.771Z,84.43
2018-07-02T02:51:22.106Z,82.30
2018-07-02T02:53:50.439Z,82.57
2018-07-02T02:56:18.740Z,84.87
2018-07-02T02:58:46.996Z,82.60
2018-07-02T03:01:15.344Z,89.17
2018-07-02T03:03:44.102Z,83.27
2018-07-02T03:06:12.436Z,85.90
2018-07-02T03:08:40.755Z,83.80
2018-07-02T03:11:09.012Z,85.47
2018-07-02T03:13:37.287Z,84.20
2018-07-02T03:16:05.736Z,83.27
2018-07-02T03:18:34.035Z,84.33
2018-07-02T03:21:02.337Z,84.57
2018-07-02T03:23:30.646Z,83.03
2018-07-02T03:25:58.922Z,83.47
2018-07-02T03:28:27.249Z,83.57
2018-07-02T03:30:55.545Z,85.27
2018-07-02T03:33:23.835Z,89.17
2018-07-02T03:35:52.139Z,85.83
2018-07-02T03:38:20.459Z,84.57
2018-07-02T03:40:48.746Z,84.17
2018-07-02T03:43:17.824Z,83.77
2018-07-02T03:45:46.353Z,83.70
2018-07-02T03:48:14.668Z,84.07
2018-07-02T03:50:42.972Z,88.20
2018-07-02T03:53:11.445Z,85.17
2018-07-02T03:55:39.907Z,84.77
2018-07-02T03:58:08.227Z,85.13
2018-07-02T04:00:36.537Z,84.00
2018-07-02T04:03:04.840Z,85.60
2018-07-02T04:05:33.242Z,85.80
2018-07-02T04:08:01.532Z,84.37
2018-07-02T04:10:29.884Z,85.10
2018-07-02T04:12:58.257Z,83.70
2018-07-02T04:15:26.592Z,85.00
2018-07-02T04:17:54.888Z,83.47
2018-07-02T04:20:23.168Z,85.63
2018-07-02T04:22:51.596Z,86.57
2018-07-02T04:25:19.873Z,85.50
2018-07-02T04:27:48.163Z,84.47
2018-07-02T04:30:16.501Z,83.47
2018-07-02T04:32:44.744Z,83.00
2018-07-02T04:35:13.832Z,83.50
2018-07-02T04:37:42.147Z,83.57
2018-07-02T04:40:10.462Z,84.33
2018-07-02T04:42:38.774Z,82.97
2018-07-02T04:45:07.139Z,83.07
2018-07-02T04:47:35.384Z,82.93
2018-07-02T04:50:03.727Z,83.67
2018-07-02T04:52:32.005Z,85.30
2018-07-02T04:55:00.406Z,86.30
2018-07-02T04:57:28.692Z,80.00
2018-07-02T04:59:57.023Z,78.30
2018-07-02T05:02:25.272Z,79.77
2018-07-02T05:04:53.556Z,80.60
2018-07-02T05:07:21.858Z,79.70
2018-07-02T05:09:50.170Z,79.10
2018-07-02T05:12:18.380Z,78.50
2018-07-02T05:14:46.636Z,77.30
2018-07-02T05:17:14.876Z,77.50
2018-07-02T05:19:43.203Z,76.80
2018-07-02T05:22:11.425Z,77.47
2018-07-02T05:24:39.762Z,77.37
2018-07-02T05:27:07.967Z,77.73
2018-07-02T05:29:36.301Z,78.07
2018-07-02T05:32:04.571Z,78.10
2018-07-02T05:34:32.914Z,78.27
2018-07-02T05:37:01.202Z,78.60
2018-07-02T05:39:29.457Z,80.40
2018-07-02T05:41:57.745Z,78.87
2018-07-02T05:44:26.026Z,77.10
2018-07-02T05:46:54.272Z,77.77
2018-07-02T05:49:22.627Z,81.97
2018-07-02T05:51:50.917Z,77.37
2018-07-02T05:54:19.237Z,77.60
2018-07-02T05:56:47.547Z,78.57
2018-07-02T05:59:15.820Z,81.27
2018-07-02T06:01:44.114Z,78.27
2018-07-02T06:04:12.453Z,78.17
2018-07-02T06:06:40.852Z,79.33
2018-07-02T06:09:10.453Z,77.80
2018-07-02T06:11:39.560Z,80.40
2018-07-02T06:14:08.105Z,78.43
2018-07-02T06:16:36.425Z,78.67
2018-07-02T06:19:04.660Z,85.63
2018-07-02T06:21:32.928Z,81.00
2018-07-02T06:24:01.216Z,81.20
2018-07-02T06:26:29.489Z,83.53
2018-07-02T06:28:57.752Z,80.80
2018-07-02T06:31:26.004Z,85.40
2018-07-02T06:33:54.304Z,79.73
2018-07-02T06:36:22.608Z,84.40
2018-07-02T06:38:51.114Z,84.10
2018-07-02T06:41:19.519Z,88.33
2018-07-02T06:43:47.761Z,88.43
2018-07-02T06:46:16.116Z,87.17
2018-07-02T06:48:44.483Z,90.03
2018-07-02T06:51:12.716Z,91.17
2018-07-02T06:53:41.005Z,96.07
2018-07-02T06:56:09.321Z,96.80
2018-07-02T06:58:37.614Z,96.23
2018-07-02T07:01:05.798Z,99.43
2018-07-02T07:03:34.063Z,100.30
2018-07-02T07:06:02.328Z,97.80
2018-07-02T07:08:30.584Z,99.80
2018-07-02T07:10:58.857Z,100.17
2018-07-02T07:13:27.090Z,98.33
2018-07-02T07:15:55.362Z,94.70
2018-07-02T07:18:23.681Z,100.47
2018-07-02T07:20:51.994Z,92.37
2018-07-02T07:23:20.268Z,90.33
2018-07-02T07:25:48.597Z,100.57
2018-07-02T07:28:16.827Z,94.77
2018-07-02T07:30:45.161Z,96.73
2018-07-02T07:33:13.408Z,90.20
2018-07-02T07:35:41.696Z,96.40
2018-07-02T07:38:10.015Z,109.43
2018-07-02T07:40:38.310Z,92.33
2018-07-02T07:43:06.670Z,109.20
2018-07-02T07:45:35.019Z,98.30
2018-07-02T07:48:03.277Z,99.57
2018-07-02T07:50:31.532Z,91.70
2018-07-02T07:52:59.758Z,88.60
2018-07-02T07:55:28.036Z,94.57
2018-07-02T07:57:56.496Z,87.07
2018-07-02T08:00:24.741Z,88.20
2018-07-02T08:02:52.985Z,88.67
2018-07-02T08:05:21.237Z,115.10
2018-07-02T08:07:49.493Z,93.23
2018-07-02T08:10:17.817Z,100.23
2018-07-02T08:12:46.074Z,100.97
2018-07-02T08:15:14.378Z,105.13
2018-07-02T08:17:42.856Z,99.23
2018-07-02T08:20:11.094Z,100.23
2018-07-02T08:22:39.332Z,98.27
2018-07-02T08:25:08.311Z,101.73
2018-07-02T08:27:36.573Z,103.70
2018-07-02T08:30:05.758Z,95.60
2018-07-02T08:32:33.996Z,113.90
2018-07-02T08:35:02.262Z,101.53
2018-07-02T08:37:30.545Z,106.60
2018-07-02T08:39:58.811Z,99.63
2018-07-02T08:42:27.057Z,104.37
2018-07-02T08:44:55.349Z,108.80
2018-07-02T08:47:23.610Z,99.07
2018-07-02T08:49:51.904Z,107.67
2018-07-02T08:52:20.194Z,103.97
2018-07-02T08:54:48.535Z,106.03
2018-07-02T08:57:16.786Z,104.37
2018-07-02T08:59:45.156Z,98.23
